This is the latest recevied weather packets stored in our database for station/object E24MSQ-13. If no packets are shown the sender has not sent any weather packets the latest 1 day(s).
| Time | Temp. | Humidity | Pressure | Rain* | Wind** | Luminosity | Snow |
|---|---|---|---|---|---|---|---|
| 1778082326 | 31.11° C | 69% | 1009 hPa | - | - | 0 W/m² | - |
| 1778080477 | 31.11° C | 69% | 1009 hPa | - | - | 0 W/m² | - |
| 1778069384 | 32.78° C | 63% | 1008 hPa | - | - | 0 W/m² | - |
| 1778068460 | 33.33° C | 60% | 1008 hPa | - | - | 0 W/m² | - |
| 1778066611 | 33.89° C | 59% | 1007 hPa | - | - | 0 W/m² | - |
| 1778064762 | 34.44° C | 62% | 1007 hPa | - | - | 0 W/m² | - |
| 1778062913 | 35.56° C | 60% | 1006 hPa | - | - | 0 W/m² | - |
| 1778061064 | 36.11° C | 57% | 1006 hPa | - | - | 0 W/m² | - |
| 1778059215 | 37.22° C | 55% | 1006 hPa | - | - | 0 W/m² | - |
| 1778058291 | 37.22° C | 54% | 1006 hPa | - | - | 0 W/m² | - |
| 1778056442 | 38.33° C | 51% | 1006 hPa | - | - | 0 W/m² | - |
| 1778053669 | 38.33° C | 50% | 1006 hPa | - | - | 0 W/m² | - |
| 1778050896 | 38.89° C | 49% | 1007 hPa | - | - | 0 W/m² | - |
| 1778049047 | 37.78° C | 51% | 1008 hPa | - | - | 0 W/m² | - |
| 1778047198 | 37.22° C | 50% | 1008 hPa | - | - | 0 W/m² | - |
| 1778046274 | 37.78° C | 52% | 1008 hPa | - | - | 0 W/m² | - |
| 1778044425 | 36.11° C | 57% | 1009 hPa | - | - | 0 W/m² | - |
| 1778043500 | 35° C | 58% | 1009 hPa | - | - | 0 W/m² | - |
| 1778042576 | 35.56° C | 55% | 1009 hPa | - | - | 0 W/m² | - |
| 1778041652 | 35.56° C | 55% | 1010 hPa | - | - | 0 W/m² | - |
| 1778040727 | 35.56° C | 55% | 1010 hPa | - | - | 0 W/m² | - |
| 1778039803 | 35.56° C | 56% | 1010 hPa | - | - | 0 W/m² | - |
| 1778038879 | 35° C | 57% | 1010 hPa | - | - | 0 W/m² | - |
| 1778037954 | 35° C | 57% | 1010 hPa | - | - | 0 W/m² | - |
| 1778037030 | 34.44° C | 58% | 1010 hPa | - | - | 0 W/m² | - |
* Rain since midnight (hover to see other rain measurements)
** Current wind speed in m/s (hover to see current wind gust speed)